Time;durP1;ratioP1;P1;durP2;ratioP2;P2;SDS_P1;SDS_P2;PMS_P1;PMS_P2;Temp;Humidity;BMP_temperature;BMP_pressure;BME280_temperature;BME280_humidity;BME280_pressure;Samples;Min_cycle;Max_cycle;Signal;HPM_P1;HPM_P2
2021/05/13 00:01:34;;;;;;;8.63;5.82;;;;;;;18.61;56.66;98766.34;5030970;28;20033;-37
2021/05/13 00:04:00;;;;;;;7.75;5.88;;;;;;;18.74;56.69;98765.72;5030909;28;20108;-38
2021/05/13 00:06:25;;;;;;;10.25;6.43;;;;;;;18.76;56.51;98768.91;5031403;28;20029;-37
2021/05/13 00:08:56;;;;;;;10.48;6.03;;;;;;;18.50;56.99;98768.28;5030594;28;20079;-37
2021/05/13 00:11:27;;;;;;;8.98;6.60;;;;;;;18.58;56.89;98769.56;5030677;28;20430;-37
2021/05/13 00:13:52;;;;;;;10.50;6.57;;;;;;;18.55;56.60;98768.25;5031106;28;20033;-37
2021/05/13 00:16:18;;;;;;;11.55;5.95;;;;;;;18.40;56.96;98778.34;5030519;28;20402;-37
2021/05/13 00:18:43;;;;;;;8.80;5.93;;;;;;;18.73;55.54;98777.59;5030589;28;20026;-38
2021/05/13 00:21:09;;;;;;;9.40;5.78;;;;;;;18.99;55.33;98782.81;5030623;28;20193;-38
2021/05/13 00:23:34;;;;;;;7.97;6.00;;;;;;;18.95;55.11;98777.16;5030708;28;20480;-38
2021/05/13 00:26:00;;;;;;;7.68;5.72;;;;;;;19.19;54.30;98783.72;5031206;28;20021;-38
2021/05/13 00:28:25;;;;;;;10.95;6.80;;;;;;;19.22;54.75;98781.25;5031391;28;20014;-38
2021/05/13 00:30:51;;;;;;;9.48;5.70;;;;;;;19.19;54.38;98772.91;5031287;28;20063;-38
2021/05/13 00:33:16;;;;;;;7.93;5.30;;;;;;;19.00;54.48;98775.50;5031108;28;20489;-37
2021/05/13 00:35:42;;;;;;;6.70;4.95;;;;;;;19.03;55.07;98778.44;5031059;28;20029;-38
2021/05/13 00:38:07;;;;;;;8.52;5.10;;;;;;;19.03;54.96;98777.66;5029826;28;20026;-38
2021/05/13 00:40:33;;;;;;;5.75;4.68;;;;;;;19.03;54.12;98788.44;5030951;28;20053;-37
2021/05/13 00:42:59;;;;;;;5.95;4.60;;;;;;;18.93;54.71;98792.03;5030838;28;20474;-38
2021/05/13 00:45:25;;;;;;;6.15;4.93;;;;;;;18.73;55.02;98793.75;5030711;28;20122;-38
2021/05/13 00:50:18;;;;;;;5.82;4.40;;;;;;;18.76;55.01;98806.66;5030852;28;20414;-38
2021/05/13 00:52:44;;;;;;;6.32;4.63;;;;;;;18.52;55.57;98811.94;5030811;28;20521;-39
2021/05/13 00:55:10;;;;;;;7.28;5.00;;;;;;;18.48;56.18;98801.97;5012976;28;20025;-37
2021/05/13 00:57:36;;;;;;;8.45;5.22;;;;;;;17.97;57.88;98801.16;5030955;28;20060;-37
2021/05/13 01:00:08;;;;;;;12.38;8.07;;;;;;;18.03;59.46;98807.31;5029247;28;20025;-37
2021/05/13 01:02:33;;;;;;;11.55;7.88;;;;;;;17.92;59.61;98803.84;5030994;28;20025;-38
2021/05/13 01:04:59;;;;;;;11.93;8.55;;;;;;;18.15;60.01;98812.38;5030498;28;20037;-38
2021/05/13 01:07:24;;;;;;;12.68;9.18;;;;;;;18.08;59.84;98803.78;5030166;28;20028;-38
2021/05/13 01:09:50;;;;;;;12.68;9.50;;;;;;;17.81;61.23;98804.94;5030221;28;20087;-38
2021/05/13 01:12:18;;;;;;;12.82;9.38;;;;;;;17.88;61.11;98802.00;5030560;28;20457;-38
2021/05/13 01:14:46;;;;;;;14.23;9.50;;;;;;;17.83;61.02;98804.66;5030116;28;20056;-38
2021/05/13 01:19:50;;;;;;;12.95;9.20;;;;;;;17.95;60.67;98797.94;5030068;28;20470;-38
2021/05/13 01:22:16;;;;;;;14.05;9.25;;;;;;;18.07;60.02;98780.66;5030472;28;20021;-38
2021/05/13 01:24:42;;;;;;;14.98;9.00;;;;;;;17.94;60.70;98796.31;5028683;28;20024;-37
2021/05/13 01:27:07;;;;;;;14.20;9.23;;;;;;;17.87;60.77;98797.69;5030203;28;20203;-38
2021/05/13 01:29:33;;;;;;;14.93;9.20;;;;;;;17.82;61.16;98798.47;5030248;28;20036;-38
2021/05/13 01:31:59;;;;;;;12.27;8.70;;;;;;;17.54;62.03;98795.31;5030364;28;20062;-38
2021/05/13 01:34:24;;;;;;;15.02;9.43;;;;;;;17.29;63.09;98795.38;5030041;28;20051;-38
2021/05/13 01:36:50;;;;;;;15.23;9.50;;;;;;;17.31;62.53;98803.97;5029998;28;20017;-38
2021/05/13 01:39:15;;;;;;;14.20;9.40;;;;;;;17.34;62.71;98798.84;5030151;28;20083;-37
2021/05/13 01:41:41;;;;;;;12.10;8.80;;;;;;;17.15;63.01;98803.16;5029760;28;20147;-37
2021/05/13 01:44:07;;;;;;;11.32;8.73;;;;;;;16.99;63.15;98802.34;5030005;28;20026;-37
2021/05/13 01:46:33;;;;;;;12.52;8.82;;;;;;;16.95;62.74;98802.06;5029596;28;20096;-37
2021/05/13 01:48:58;;;;;;;13.23;8.57;;;;;;;16.86;63.96;98803.69;5030106;28;20025;-37
2021/05/13 01:51:23;;;;;;;14.05;9.05;;;;;;;16.88;63.14;98796.16;5030338;28;20032;-37
2021/05/13 01:53:49;;;;;;;11.77;9.20;;;;;;;16.99;63.39;98794.28;5030076;28;20029;-37
2021/05/13 01:56:15;;;;;;;14.23;9.30;;;;;;;17.10;62.38;98793.22;5030021;28;20398;-38
2021/05/13 01:58:40;;;;;;;11.07;9.02;;;;;;;17.24;62.10;98793.47;5029873;28;20025;-38
2021/05/13 02:01:06;;;;;;;11.18;9.20;;;;;;;17.28;61.64;98801.81;5029982;28;20090;-38
2021/05/13 02:03:34;;;;;;;16.10;9.13;;;;;;;17.19;62.40;98804.22;5029832;28;20017;-37
2021/05/13 02:06:00;;;;;;;11.75;9.05;;;;;;;17.31;61.59;98802.06;5029614;28;20061;-47
2021/05/13 02:08:25;;;;;;;16.92;9.40;;;;;;;17.18;62.13;98806.09;5030010;28;20022;-38
2021/05/13 02:10:51;;;;;;;14.30;9.43;;;;;;;16.96;63.07;98814.44;5029581;28;20135;-38
2021/05/13 02:13:16;;;;;;;12.02;9.30;;;;;;;16.96;63.01;98816.31;5028350;28;20341;-37
2021/05/13 02:15:41;;;;;;;12.77;9.10;;;;;;;16.55;63.85;98806.28;5029580;28;20038;-37
2021/05/13 02:18:07;;;;;;;13.20;9.50;;;;;;;16.23;65.18;98807.25;5029684;28;20087;-37
2021/05/13 02:20:32;;;;;;;12.13;9.10;;;;;;;16.52;64.49;98800.63;5029841;28;20029;-38
2021/05/13 02:22:58;;;;;;;11.10;8.85;;;;;;;16.51;64.01;98812.47;5029729;28;20033;-37
2021/05/13 02:25:27;;;;;;;12.95;9.65;;;;;;;16.46;64.24;98810.56;5028956;28;20032;-37
2021/05/13 02:27:52;;;;;;;11.98;9.77;;;;;;;16.46;64.34;98815.13;5029930;28;20021;-38
2021/05/13 02:30:18;;;;;;;11.65;9.65;;;;;;;16.59;63.59;98817.31;5029688;28;20021;-37
2021/05/13 02:32:43;;;;;;;11.38;8.85;;;;;;;16.29;63.83;98818.81;5033360;28;20106;-37
2021/05/13 02:35:10;;;;;;;13.00;8.90;;;;;;;16.41;62.54;98816.75;5033686;28;20521;-38
2021/05/13 02:37:35;;;;;;;12.48;9.73;;;;;;;16.73;61.74;98831.03;5033239;28;20037;-37
2021/05/13 02:40:01;;;;;;;15.35;9.65;;;;;;;16.53;62.34;98821.88;5031677;28;20131;-37
2021/05/13 02:42:26;;;;;;;10.00;8.70;;;;;;;16.64;61.08;98814.66;5032999;28;20032;-36
2021/05/13 02:44:51;;;;;;;12.05;8.40;;;;;;;16.62;60.73;98808.75;5033248;28;20029;-38
2021/05/13 02:47:17;;;;;;;11.57;8.65;;;;;;;16.15;62.08;98820.41;5032826;28;20466;-36
2021/05/13 02:49:42;;;;;;;12.23;8.15;;;;;;;15.81;62.76;98813.53;5033048;28;20088;-36
2021/05/13 02:52:08;;;;;;;14.77;8.13;;;;;;;15.59;63.26;98810.16;5032959;28;20128;-37
2021/05/13 02:54:33;;;;;;;12.52;7.40;;;;;;;15.00;64.30;98817.25;5033024;28;20033;-36
2021/05/13 02:56:59;;;;;;;10.80;7.82;;;;;;;15.34;63.39;98829.56;5033079;28;20029;-37
2021/05/13 02:59:43;;;;;;;8.52;7.30;;;;;;;15.34;62.22;98829.56;5032845;28;20026;-37
2021/05/13 03:02:09;;;;;;;9.68;7.43;;;;;;;15.53;61.67;98819.22;5033061;28;20033;-38
2021/05/13 03:04:34;;;;;;;10.23;6.60;;;;;;;14.89;62.54;98815.53;5032799;28;20056;-37
2021/05/13 03:07:00;;;;;;;9.48;6.38;;;;;;;14.88;62.11;98813.09;5032619;28;20120;-37
2021/05/13 03:09:25;;;;;;;7.53;6.40;;;;;;;14.66;62.88;98819.34;5032761;28;20095;-37
2021/05/13 03:11:51;;;;;;;8.20;5.97;;;;;;;14.63;61.73;98809.91;5032417;28;20017;-42
2021/05/13 03:14:17;;;;;;;11.70;5.80;;;;;;;14.86;59.98;98779.31;5032224;28;20037;-38
2021/05/13 03:16:42;;;;;;;9.05;5.95;;;;;;;15.06;59.81;98796.66;5032659;28;20083;-36
2021/05/13 03:19:13;;;;;;;7.80;5.32;;;;;;;14.96;59.29;98794.69;5032220;28;20458;-38
2021/05/13 03:21:42;;;;;;;9.65;5.75;;;;;;;15.17;58.97;98797.53;5032228;28;20088;-37
2021/05/13 03:29:17;;;;;;;8.55;5.25;;;;;;;15.32;58.29;98815.59;5032112;28;20109;-38
2021/05/13 03:31:42;;;;;;;7.90;4.87;;;;;;;15.47;56.72;98820.28;5032270;28;20060;-36
2021/05/13 03:34:08;;;;;;;7.78;5.05;;;;;;;14.81;58.57;98814.13;5032192;28;20445;-37
2021/05/13 03:36:33;;;;;;;6.88;4.45;;;;;;;14.80;57.83;98817.84;5032234;28;20064;-37
2021/05/13 03:39:00;;;;;;;6.97;4.47;;;;;;;14.99;57.31;98817.50;5032109;28;20030;-37
2021/05/13 03:41:25;;;;;;;9.50;4.97;;;;;;;14.92;57.10;98812.31;5031689;28;20123;-38
2021/05/13 03:43:51;;;;;;;5.80;4.32;;;;;;;15.07;56.44;98816.22;5031457;28;20486;-36
2021/05/13 03:46:16;;;;;;;9.77;5.45;;;;;;;15.36;55.98;98830.91;5032344;28;20177;-38
2021/05/13 03:48:41;;;;;;;9.00;4.65;;;;;;;15.53;54.94;98828.06;5032391;28;20465;-38
2021/05/13 03:51:07;;;;;;;8.52;4.35;;;;;;;15.72;54.68;98817.72;5032192;28;20057;-37
2021/05/13 03:53:32;;;;;;;8.45;4.70;;;;;;;15.78;54.37;98818.59;5031717;28;20036;-36
2021/05/13 03:55:58;;;;;;;7.43;4.43;;;;;;;16.09;53.29;98816.06;5032092;28;20025;-37
2021/05/13 03:58:27;;;;;;;6.38;4.25;;;;;;;16.39;52.41;98824.25;5032216;28;20034;-37
2021/05/13 04:03:19;;;;;;;7.43;4.28;;;;;;;17.43;49.85;98833.25;5032012;28;20065;-38
2021/05/13 04:05:44;;;;;;;6.13;4.20;;;;;;;17.51;49.74;98838.09;5031553;28;20139;-37
2021/05/13 04:08:10;;;;;;;8.90;3.80;;;;;;;17.55;49.43;98836.47;5031432;28;20108;-38
2021/05/13 04:10:36;;;;;;;6.70;3.80;;;;;;;17.17;51.00;98847.53;5029651;28;20456;-38
2021/05/13 04:13:04;;;;;;;6.38;3.85;;;;;;;17.72;49.12;98842.34;5031589;28;20026;-38
2021/05/13 04:15:29;;;;;;;8.55;4.15;;;;;;;17.71;49.05;98845.31;5031570;28;20053;-37
2021/05/13 04:17:55;;;;;;;13.38;7.55;;;;;;;17.51;48.50;98851.53;5031250;28;20040;-37
2021/05/13 04:20:20;;;;;;;9.50;3.97;;;;;;;17.59;49.40;98846.41;5031640;28;20037;-37
2021/05/13 04:22:46;;;;;;;5.20;4.00;;;;;;;17.65;49.58;98839.16;5030948;28;20105;-39
2021/05/13 04:25:12;;;;;;;5.20;3.80;;;;;;;17.98;48.81;98845.00;5029187;28;20024;-38
2021/05/13 04:27:37;;;;;;;9.40;3.63;;;;;;;17.90;48.17;98846.38;5024619;28;20199;-38
2021/05/13 04:30:03;;;;;;;7.25;4.03;;;;;;;18.36;47.69;98832.75;5010224;28;20084;-38
2021/05/13 04:32:28;;;;;;;7.82;3.90;;;;;;;18.55;47.37;98846.38;5011219;28;20033;-37
2021/05/13 04:34:54;;;;;;;4.68;3.70;;;;;;;18.98;46.35;98851.28;5011163;28;20116;-38
2021/05/13 04:37:19;;;;;;;5.20;3.88;;;;;;;19.07;46.03;98849.59;5010915;28;20037;-37
2021/05/13 04:39:45;;;;;;;7.97;3.65;;;;;;;19.18;46.15;98849.53;5010277;28;20036;-38
2021/05/13 04:42:10;;;;;;;8.70;3.50;;;;;;;19.61;45.10;98852.38;5010416;28;20025;-38
2021/05/13 04:44:36;;;;;;;10.10;4.20;;;;;;;19.94;44.10;98858.84;5010373;28;20443;-38
2021/05/13 04:47:18;;;;;;;8.43;3.90;;;;;;;19.63;44.57;98852.88;5018148;28;20025;-39
2021/05/13 04:49:43;;;;;;;6.25;3.70;;;;;;;19.93;43.83;98851.81;5029788;28;20109;-38
2021/05/13 04:52:09;;;;;;;6.20;3.90;;;;;;;19.59;44.66;98841.06;5030157;28;20022;-38
2021/05/13 04:54:34;;;;;;;8.65;4.20;;;;;;;19.68;44.60;98842.84;5027887;28;20461;-38
2021/05/13 04:57:00;;;;;;;7.05;3.92;;;;;;;19.65;45.15;98851.53;5029791;28;20527;-38
2021/05/13 04:59:26;;;;;;;8.75;4.22;;;;;;;20.40;43.29;98847.47;5029922;28;20733;-38
2021/05/13 05:01:51;;;;;;;6.35;4.30;;;;;;;20.41;43.51;98853.69;5018734;28;20049;-37
2021/05/13 05:04:16;;;;;;;9.10;4.85;;;;;;;21.00;42.10;98865.06;5025142;28;20481;-37
2021/05/13 05:06:42;;;;;;;6.55;4.30;;;;;;;21.65;41.08;98872.44;5029975;28;20076;-37
2021/05/13 05:09:07;;;;;;;7.47;4.25;;;;;;;21.71;40.40;98868.53;5029899;28;20083;-37
2021/05/13 05:11:33;;;;;;;7.20;4.45;;;;;;;21.42;40.19;98872.25;5029693;28;20060;-37
2021/05/13 05:13:58;;;;;;;6.50;3.88;;;;;;;21.31;40.88;98878.94;5029754;28;20397;-51
2021/05/13 05:16:24;;;;;;;6.55;4.10;;;;;;;21.17;41.17;98878.06;5029574;28;20049;-51
2021/05/13 05:18:50;;;;;;;7.32;3.70;;;;;;;21.25;40.80;98874.72;5029648;28;20084;-50
2021/05/13 05:21:16;;;;;;;13.35;9.80;;;;;;;21.12;40.44;98884.38;5029682;28;20036;-51
2021/05/13 05:23:41;;;;;;;8.38;5.05;;;;;;;20.61;41.41;98877.78;5022324;28;20018;-52
2021/05/13 05:26:07;;;;;;;6.13;3.88;;;;;;;20.68;41.85;98869.31;5025874;28;20025;-50
2021/05/13 05:28:32;;;;;;;20.10;13.88;;;;;;;21.45;41.98;98870.88;5029807;28;20025;-51
2021/05/13 05:30:58;;;;;;;13.02;7.72;;;;;;;22.39;40.87;98871.59;5029644;28;20099;-50
2021/05/13 05:33:23;;;;;;;8.65;4.80;;;;;;;23.16;38.42;98861.78;5029727;28;20029;-53
2021/05/13 05:35:49;;;;;;;5.13;3.83;;;;;;;23.83;37.18;98866.38;5029727;28;20469;-52
2021/05/13 05:38:15;;;;;;;6.88;3.70;;;;;;;24.19;35.08;98855.31;5029512;28;20024;-52
2021/05/13 05:40:40;;;;;;;6.32;3.55;;;;;;;24.61;34.42;98849.53;5029472;28;20048;-50
2021/05/13 05:43:06;;;;;;;14.55;3.85;;;;;;;24.61;35.27;98854.16;5029768;28;20029;-50
2021/05/13 05:45:31;;;;;;;6.20;3.80;;;;;;;25.01;34.78;98860.25;5029888;28;20060;-53
2021/05/13 05:47:59;;;;;;;6.40;3.70;;;;;;;25.03;34.84;98871.63;5008694;28;20534;-52
2021/05/13 05:50:29;;;;;;;6.70;3.60;;;;;;;25.63;33.55;98869.19;5009907;28;20029;-53
2021/05/13 05:52:54;;;;;;;;;;;;;;;25.36;34.15;98874.69;5010374;28;20026;-51
2021/05/13 05:55:20;;;;;;;6.85;3.55;;;;;;;25.51;33.34;98869.84;5009596;28;19916;-50
2021/05/13 05:57:45;;;;;;;6.55;3.83;;;;;;;25.45;33.31;98879.31;5017354;28;20114;-51
2021/05/13 06:00:11;;;;;;;7.65;3.90;;;;;;;25.44;33.44;98885.88;5024145;28;20505;-51
2021/05/13 06:02:37;;;;;;;7.07;3.97;;;;;;;25.72;33.19;98884.38;5009189;28;20030;-54
2021/05/13 06:05:03;;;;;;;7.00;3.60;;;;;;;25.72;32.45;98875.38;5008960;28;20045;-51
2021/05/13 06:07:28;;;;;;;7.60;3.80;;;;;;;25.45;32.21;98862.97;5012130;28;20152;-52
2021/05/13 06:09:55;;;;;;;9.48;3.90;;;;;;;25.05;33.50;98854.97;5012913;28;20033;-54
2021/05/13 06:12:21;;;;;;;5.38;3.83;;;;;;;24.50;34.25;98859.88;5012896;28;20026;-50
2021/05/13 06:14:46;;;;;;;10.30;4.25;;;;;;;24.82;33.93;98862.50;5012781;28;20049;-50
2021/05/13 06:17:12;;;;;;;11.93;3.80;;;;;;;24.66;34.25;98864.91;5012720;28;20052;-50
2021/05/13 06:19:37;;;;;;;6.00;3.45;;;;;;;24.75;34.49;98850.19;5012631;28;20034;-52
2021/05/13 06:22:03;;;;;;;8.85;4.00;;;;;;;24.71;34.63;98860.09;5012928;28;20021;-51
2021/05/13 06:24:28;;;;;;;9.48;4.40;;;;;;;24.80;33.71;98865.53;5018076;28;20021;-53
2021/05/13 06:26:55;;;;;;;7.68;3.55;;;;;;;25.47;33.06;98863.44;5032532;28;20359;-52
2021/05/13 06:29:21;;;;;;;7.40;3.40;;;;;;;25.73;32.52;98860.66;5032322;28;20018;-52
2021/05/13 06:31:46;;;;;;;5.05;3.20;;;;;;;26.22;31.83;98850.22;5031693;28;20589;-52
2021/05/13 06:34:11;;;;;;;13.88;3.80;;;;;;;27.05;30.87;98845.16;5031651;28;20034;-51
2021/05/13 06:36:40;;;;;;;7.68;3.70;;;;;;;27.58;30.27;98848.97;5031453;28;20021;-52
2021/05/13 06:39:06;;;;;;;5.40;3.30;;;;;;;27.68;29.98;98847.75;5031288;28;20033;-53
2021/05/13 06:41:32;;;;;;;4.47;3.30;;;;;;;28.17;29.48;98845.06;5025166;28;20139;-50
2021/05/13 06:43:57;;;;;;;5.43;3.50;;;;;;;28.30;29.09;98848.59;5029489;28;20052;-49
2021/05/13 06:46:24;;;;;;;7.32;3.50;;;;;;;28.36;29.27;98851.91;5027747;28;20037;-51
2021/05/13 06:48:50;;;;;;;10.63;3.70;;;;;;;28.28;30.21;98843.47;5031920;28;20029;-52
2021/05/13 06:51:15;;;;;;;8.23;4.03;;;;;;;28.60;29.50;98842.91;5031799;28;20083;-51
2021/05/13 06:53:41;;;;;;;8.60;3.80;;;;;;;28.20;30.79;98849.09;5031918;28;20022;-51
2021/05/13 06:56:06;;;;;;;6.97;4.47;;;;;;;28.51;29.80;98836.72;5031851;28;20018;-52
2021/05/13 06:58:31;;;;;;;5.80;3.58;;;;;;;28.85;30.24;98838.94;5031688;28;20095;-51
2021/05/13 07:00:57;;;;;;;8.50;3.67;;;;;;;29.82;29.03;98840.78;5024066;28;20026;-52
2021/05/13 07:03:22;;;;;;;6.78;4.25;;;;;;;30.52;27.67;98836.53;5024824;28;20029;-53
2021/05/13 07:05:48;;;;;;;8.20;5.00;;;;;;;30.54;27.37;98842.44;5012633;28;20383;-50
2021/05/13 07:08:13;;;;;;;7.32;3.90;;;;;;;30.43;27.32;98835.94;5012488;28;20025;-52
2021/05/13 07:10:39;;;;;;;7.55;3.97;;;;;;;30.33;27.69;98834.53;5012700;28;20049;-53
2021/05/13 07:13:05;;;;;;;8.98;4.20;;;;;;;30.43;27.99;98842.22;5012646;28;20324;-38
2021/05/13 07:15:31;;;;;;;7.53;4.10;;;;;;;30.23;27.51;98835.84;5012878;28;20465;-38
2021/05/13 07:17:57;;;;;;;11.15;6.38;;;;;;;30.08;28.30;98831.19;5014352;28;20030;-38
2021/05/13 07:20:23;;;;;;;7.10;4.40;;;;;;;30.17;27.75;98829.06;5025612;28;20084;-38
2021/05/13 07:22:49;;;;;;;7.95;6.53;;;;;;;29.62;28.56;98826.97;5030642;28;20025;-38
2021/05/13 07:25:15;;;;;;;12.18;4.15;;;;;;;29.72;28.78;98819.31;5032323;28;20083;-38
2021/05/13 07:27:40;;;;;;;6.15;3.92;;;;;;;29.47;29.01;98819.50;5032834;28;20025;-38
2021/05/13 07:30:06;;;;;;;8.52;4.70;;;;;;;28.62;30.21;98824.97;5032502;28;20036;-38
2021/05/13 07:32:32;;;;;;;7.82;4.80;;;;;;;28.68;29.60;98832.97;5032170;28;20045;-38
2021/05/13 07:34:57;;;;;;;11.95;4.05;;;;;;;28.99;29.73;98822.09;5032198;28;20040;-38
2021/05/13 07:37:25;;;;;;;11.00;4.90;;;;;;;28.89;29.71;98825.34;5031819;28;20025;-38
2021/05/13 07:39:50;;;;;;;5.75;4.40;;;;;;;28.61;30.25;98825.31;5031990;28;20032;-39
2021/05/13 07:42:16;;;;;;;10.48;5.60;;;;;;;29.75;28.91;98818.66;5031525;28;20029;-38
2021/05/13 07:44:41;;;;;;;10.13;4.20;;;;;;;30.06;28.72;98812.34;5031882;28;20032;-39
2021/05/13 07:47:07;;;;;;;7.15;4.30;;;;;;;30.98;27.35;98815.56;5030240;28;20029;-38
2021/05/13 07:49:34;;;;;;;10.77;4.47;;;;;;;31.36;26.87;98813.13;5031340;28;20029;-37
2021/05/13 07:51:59;;;;;;;6.30;4.55;;;;;;;31.80;26.51;98815.47;5031605;28;20091;-37
2021/05/13 07:54:25;;;;;;;9.55;5.35;;;;;;;31.74;25.93;98812.22;5031402;28;20021;-38
2021/05/13 07:56:50;;;;;;;7.65;5.13;;;;;;;31.23;27.09;98819.94;5037044;28;20040;-38
2021/05/13 07:59:16;;;;;;;5.80;4.65;;;;;;;31.04;26.97;98816.06;5031885;28;20032;-38
2021/05/13 08:01:41;;;;;;;8.95;4.47;;;;;;;30.64;27.51;98802.69;5043599;28;20094;-38
2021/05/13 08:04:07;;;;;;;8.48;4.43;;;;;;;29.72;28.58;98811.09;5035225;28;20028;-38
2021/05/13 08:06:32;;;;;;;5.63;4.38;;;;;;;28.55;30.18;98811.09;5034201;28;20025;-38
2021/05/13 08:08:58;;;;;;;9.25;4.95;;;;;;;28.65;30.10;98812.53;5044814;28;20018;-37
2021/05/13 08:11:23;;;;;;;9.93;4.68;;;;;;;28.61;30.48;98803.44;5041263;28;20162;-36
2021/05/13 08:13:49;;;;;;;9.52;4.53;;;;;;;27.99;31.51;98800.78;5037732;28;20595;-37
2021/05/13 08:16:14;;;;;;;8.40;4.22;;;;;;;28.22;31.42;98792.88;5030574;28;20425;-38
2021/05/13 08:18:40;;;;;;;9.48;4.70;;;;;;;28.08;31.42;98797.91;5034989;28;20433;-37
2021/05/13 08:21:05;;;;;;;8.73;4.45;;;;;;;28.42;31.64;98807.53;5051230;28;20017;-38
2021/05/13 08:23:31;;;;;;;6.57;4.40;;;;;;;28.51;30.75;98801.94;5039993;28;20028;-38
2021/05/13 08:25:56;;;;;;;11.45;4.22;;;;;;;28.74;30.65;98806.94;5045310;28;20373;-38
2021/05/13 08:28:22;;;;;;;6.88;4.43;;;;;;;27.10;32.79;98815.72;5034158;28;20074;-37
2021/05/13 08:30:47;;;;;;;8.38;4.25;;;;;;;27.33;33.18;98806.38;5045495;28;20087;-38
2021/05/13 08:33:13;;;;;;;7.10;4.15;;;;;;;27.06;33.20;98801.13;5039196;28;20506;-38
2021/05/13 08:35:38;;;;;;;8.85;4.40;;;;;;;27.06;32.73;98797.63;5050702;28;20059;-39
2021/05/13 08:38:04;;;;;;;6.90;4.50;;;;;;;27.68;32.37;98793.09;5050912;28;20128;-38
2021/05/13 08:40:29;;;;;;;9.77;4.25;;;;;;;27.91;32.10;98798.94;5050818;28;20112;-38
2021/05/13 08:42:54;;;;;;;8.50;4.20;;;;;;;27.80;32.16;98795.06;5050077;28;20025;-38
2021/05/13 08:45:20;;;;;;;7.47;4.10;;;;;;;27.87;32.11;98795.25;5050924;28;20067;-39
2021/05/13 08:47:46;;;;;;;6.65;4.40;;;;;;;27.63;32.42;98785.94;5036790;28;20026;-37
2021/05/13 08:50:13;;;;;;;11.02;5.20;;;;;;;28.04;32.38;98784.13;5030699;28;20033;-37
2021/05/13 08:52:38;;;;;;;6.80;4.35;;;;;;;27.08;33.01;98784.44;5030589;28;20029;-38
2021/05/13 08:55:05;;;;;;;9.27;4.40;;;;;;;28.04;31.91;98773.19;5030537;28;20022;-38
2021/05/13 08:57:30;;;;;;;7.20;4.20;;;;;;;27.85;32.90;98781.16;5030830;28;20025;-38
2021/05/13 08:59:57;;;;;;;7.93;4.57;;;;;;;27.90;32.18;98767.28;5030535;28;20073;-38
2021/05/13 09:02:22;;;;;;;10.05;4.97;;;;;;;27.94;32.03;98767.41;5030049;28;20022;-37
2021/05/13 09:04:51;;;;;;;5.90;3.92;;;;;;;28.65;31.52;98755.88;5030128;28;20059;-38
2021/05/13 09:07:25;;;;;;;8.27;4.93;;;;;;;28.05;32.55;98765.78;5030161;28;20029;-39
2021/05/13 09:09:54;;;;;;;7.82;4.20;;;;;;;28.57;31.42;98758.75;5030222;28;20112;-38
2021/05/13 09:12:20;;;;;;;5.47;4.35;;;;;;;29.03;30.56;98760.03;5030039;28;20422;-38
2021/05/13 09:14:55;;;;;;;5.63;4.40;;;;;;;28.94;30.70;98766.81;5029804;28;20170;-38
2021/05/13 09:17:23;;;;;;;7.57;4.70;;;;;;;28.66;30.67;98756.66;5030757;28;20017;-38
2021/05/13 09:19:49;;;;;;;10.38;4.93;;;;;;;28.46;31.65;98756.50;5030182;28;20025;-38
2021/05/13 09:22:15;;;;;;;5.82;4.30;;;;;;;29.16;30.77;98752.56;5028395;28;20411;-38
2021/05/13 09:24:59;;;;;;;6.13;4.10;;;;;;;29.40;29.56;98748.09;5011856;28;20037;-39
2021/05/13 09:27:43;;;;;;;9.63;4.68;;;;;;;28.97;30.27;98741.47;5017449;28;20496;-38
2021/05/13 09:30:17;;;;;;;7.38;4.30;;;;;;;28.53;30.69;98739.50;5039388;28;20021;-38
2021/05/13 09:32:53;;;;;;;10.68;4.18;;;;;;;28.21;31.80;98741.25;5044284;28;20057;-37
2021/05/13 09:35:21;;;;;;;13.30;4.50;;;;;;;28.31;31.39;98731.78;5033374;28;20024;-38
2021/05/13 09:38:19;;;;;;;5.70;4.05;;;;;;;28.74;31.29;98720.13;5042846;28;20040;-39
2021/05/13 09:40:50;;;;;;;7.63;3.97;;;;;;;27.97;32.37;98718.31;5044837;28;20040;-38
2021/05/13 09:43:20;;;;;;;7.75;3.90;;;;;;;27.71;32.78;98715.13;5052425;28;20138;-39
2021/05/13 09:45:53;;;;;;;8.57;5.20;;;;;;;28.02;33.17;98711.78;5041786;28;20017;-39
2021/05/13 09:48:41;;;;;;;6.70;3.63;;;;;;;27.49;33.04;98706.22;5048547;28;20108;-37
2021/05/13 09:51:15;;;;;;;7.93;5.10;;;;;;;27.78;33.73;98698.91;5039578;28;20404;-38
2021/05/13 09:53:41;;;;;;;50.75;33.45;;;;;;;27.93;33.40;98701.00;5050185;28;20455;-38
2021/05/13 09:56:26;;;;;;;5.75;3.90;;;;;;;27.54;33.25;98697.81;5044535;28;20021;-37
2021/05/13 09:58:51;;;;;;;8.23;3.47;;;;;;;28.32;32.78;98689.63;5039356;28;20052;-37
2021/05/13 10:01:17;;;;;;;6.45;3.30;;;;;;;27.54;33.59;98703.28;5052746;28;20025;-39
2021/05/13 10:03:43;;;;;;;5.82;3.70;;;;;;;26.55;34.15;98691.31;5042182;28;20021;-38
2021/05/13 10:06:10;;;;;;;6.55;3.40;;;;;;;27.38;33.08;98678.59;5055952;28;20025;-38
2021/05/13 10:08:36;;;;;;;6.25;3.40;;;;;;;28.26;31.66;98689.84;5042395;28;20021;-40
2021/05/13 10:11:02;;;;;;;5.45;3.28;;;;;;;27.82;32.47;98697.13;5052588;28;20025;-38
2021/05/13 10:13:30;;;;;;;5.82;3.05;;;;;;;28.02;31.27;98696.19;5039756;28;20020;-38
2021/05/13 10:15:55;;;;;;;6.13;3.47;;;;;;;28.29;31.53;98688.34;5048029;28;20421;-38
2021/05/13 10:18:24;;;;;;;6.18;3.20;;;;;;;28.43;31.46;98696.19;5046485;28;20481;-39
2021/05/13 10:20:51;;;;;;;7.40;3.80;;;;;;;27.36;32.85;98686.31;5039390;28;20033;-38
2021/05/13 10:23:17;;;;;;;8.52;3.53;;;;;;;26.96;33.31;98683.38;5051044;28;20043;-37
2021/05/13 10:25:42;;;;;;;7.88;3.50;;;;;;;26.59;34.68;98683.25;5042222;28;20020;-39
2021/05/13 10:28:11;;;;;;;4.97;3.13;;;;;;;27.23;33.25;98690.16;5046983;28;20026;-39
2021/05/13 10:30:37;;;;;;;5.13;3.33;;;;;;;27.21;33.31;98676.03;5035067;28;20033;-38
2021/05/13 10:33:05;;;;;;;5.63;3.75;;;;;;;27.53;32.98;98673.56;5053006;28;20048;-37
2021/05/13 10:35:30;;;;;;;8.25;3.67;;;;;;;27.05;33.58;98668.50;5040659;28;20138;-39
2021/05/13 10:38:00;;;;;;;8.65;3.38;;;;;;;27.30;33.21;98668.53;5056417;28;20063;-38
2021/05/13 10:40:43;;;;;;;6.03;3.30;;;;;;;26.14;34.61;98668.38;5044037;28;20460;-38
2021/05/13 10:43:09;;;;;;;6.55;3.00;;;;;;;26.10;34.68;98664.75;5039164;28;20397;-39
2021/05/13 10:45:38;;;;;;;7.57;3.15;;;;;;;26.61;33.69;98654.53;5040184;28;20058;-38
2021/05/13 10:48:23;;;;;;;6.85;3.30;;;;;;;26.83;33.12;98660.75;5039232;28;20025;-38
2021/05/13 10:51:13;;;;;;;5.80;3.08;;;;;;;27.59;31.99;98656.59;5051439;28;20029;-39
2021/05/13 10:53:41;;;;;;;5.80;2.92;;;;;;;27.45;31.75;98659.66;5024740;28;20428;-39
2021/05/13 10:56:20;;;;;;;6.82;2.90;;;;;;;26.93;32.39;98654.84;5042586;28;20069;-38
2021/05/13 10:59:17;;;;;;;5.45;2.60;;;;;;;27.41;32.12;98649.78;5032484;28;20509;-38
2021/05/13 11:01:57;;;;;;;3.50;2.45;;;;;;;28.71;30.06;98640.66;5025291;28;20045;-39
2021/05/13 11:04:22;;;;;;;5.07;2.90;;;;;;;28.40;30.19;98642.16;5041037;28;20033;-37
2021/05/13 11:06:48;;;;;;;6.95;2.72;;;;;;;27.16;32.45;98636.09;5047852;28;20041;-38
2021/05/13 11:09:39;;;;;;;6.88;2.90;;;;;;;26.75;32.41;98642.50;5035960;28;20028;-38
2021/05/13 11:12:20;;;;;;;3.83;2.42;;;;;;;27.04;32.11;98628.69;5043414;28;20025;-37
2021/05/13 11:15:41;;;;;;;3.90;2.40;;;;;;;27.84;30.51;98612.84;5047223;28;20113;-38
2021/05/13 11:17:41;;;;;;;6.63;2.88;;;;;;;27.98;30.77;98613.25;5019313;28;20034;-38
2021/05/13 11:20:23;;;;;;;8.25;2.88;;;;;;;28.62;30.31;98625.22;5031123;28;20032;-39
2021/05/13 11:22:56;;;;;;;6.78;3.30;;;;;;;28.10;31.67;98614.38;5040106;28;20025;-39
2021/05/13 11:25:42;;;;;;;5.53;3.13;;;;;;;27.32;32.99;98629.97;5048991;28;20120;-38
2021/05/13 11:28:43;;;;;;;7.82;3.05;;;;;;;27.44;32.37;98610.88;5041582;28;20056;-38
2021/05/13 11:31:13;;;;;;;;;;;;;;;26.08;34.11;98621.47;5036247;28;20044;-38
2021/05/13 11:33:38;;;;;;;;;;;;;;;26.44;31.98;98620.00;5046861;28;19913;-38
2021/05/13 11:36:04;;;;;;;;;;;;;;;26.47;33.59;98622.06;5041997;28;19966;-38
2021/05/13 11:38:29;;;;;;;;;;;;;;;27.11;32.96;98625.38;5038198;28;19913;-38
2021/05/13 11:40:55;;;;;;;;;;;;;;;26.91;32.80;98644.25;5048933;28;19915;-39
2021/05/13 11:43:33;;;;;;;;;;;;;;;26.52;33.16;98635.50;5035915;28;19939;-39
2021/05/13 11:46:00;;;;;;;;;;;;;;;26.86;32.40;98639.00;5044188;28;19913;-39
2021/05/13 11:48:41;;;;;;;;;;;;;;;27.61;31.47;98624.28;5043414;28;19908;-38